createdAt,value
2018-02-13T00:02:29.905Z,0.90
2018-02-13T00:04:57.678Z,1.13
2018-02-13T00:07:25.381Z,1.00
2018-02-13T00:09:53.165Z,0.93
2018-02-13T00:12:20.934Z,1.30
2018-02-13T00:14:48.665Z,1.30
2018-02-13T00:17:16.513Z,1.00
2018-02-13T00:19:44.290Z,0.93
2018-02-13T00:22:12.880Z,1.13
2018-02-13T00:24:40.679Z,1.10
2018-02-13T00:27:08.397Z,1.20
2018-02-13T00:29:36.161Z,0.93
2018-02-13T00:32:03.888Z,1.60
2018-02-13T00:34:31.650Z,1.23
2018-02-13T00:36:59.363Z,0.90
2018-02-13T00:39:27.087Z,1.00
2018-02-13T00:41:54.853Z,1.13
2018-02-13T00:44:22.632Z,1.03
2018-02-13T00:46:51.191Z,0.77
2018-02-13T00:49:18.981Z,1.33
2018-02-13T00:51:47.597Z,1.07
2018-02-13T00:54:15.381Z,1.03
2018-02-13T00:56:43.102Z,1.30
2018-02-13T00:59:10.933Z,1.13
2018-02-13T01:01:38.670Z,1.30
2018-02-13T01:04:07.173Z,1.00
2018-02-13T01:06:34.988Z,1.10
2018-02-13T01:09:03.548Z,1.20
2018-02-13T01:11:31.325Z,1.50
2018-02-13T01:13:59.059Z,1.20
2018-02-13T01:16:27.047Z,1.50
2018-02-13T01:18:54.860Z,1.70
2018-02-13T01:21:22.642Z,1.70
2018-02-13T01:23:50.374Z,1.70
2018-02-13T01:26:18.087Z,1.67
2018-02-13T01:28:45.827Z,1.60
2018-02-13T01:31:13.605Z,2.43
2018-02-13T01:33:41.309Z,1.97
2018-02-13T01:36:09.114Z,2.13
2018-02-13T01:38:37.607Z,2.87
2018-02-13T01:41:05.370Z,2.30
2018-02-13T01:43:33.096Z,2.40
2018-02-13T01:46:00.816Z,2.10
2018-02-13T01:48:28.573Z,2.60
2018-02-13T01:50:56.306Z,2.80
2018-02-13T01:53:24.123Z,2.60
2018-02-13T01:55:51.922Z,2.43
2018-02-13T01:58:19.666Z,2.83
2018-02-13T02:00:47.448Z,2.50
2018-02-13T02:03:15.168Z,2.70
2018-02-13T02:05:42.901Z,2.27
2018-02-13T02:08:10.626Z,4.30
2018-02-13T02:10:38.338Z,2.70
2018-02-13T02:13:06.119Z,2.27
2018-02-13T02:15:34.652Z,2.30
2018-02-13T02:18:02.375Z,2.00
2018-02-13T02:20:31.000Z,2.63
2018-02-13T02:22:58.713Z,2.10
2018-02-13T02:25:26.475Z,2.50
2018-02-13T02:27:54.243Z,2.37
2018-02-13T02:30:21.961Z,2.60
2018-02-13T02:32:49.723Z,2.60
2018-02-13T02:35:17.588Z,2.53
2018-02-13T02:37:45.299Z,2.80
2018-02-13T02:40:13.029Z,2.57
2018-02-13T02:42:52.489Z,2.30
2018-02-13T02:45:20.495Z,3.73
2018-02-13T02:47:48.272Z,2.60
2018-02-13T02:50:16.056Z,3.37
2018-02-13T02:52:43.767Z,3.33
2018-02-13T02:55:11.491Z,3.10
2018-02-13T02:57:39.207Z,2.60
2018-02-13T03:00:06.956Z,3.73
2018-02-13T03:02:34.667Z,3.50
2018-02-13T03:05:03.234Z,3.80
2018-02-13T03:07:30.976Z,3.90
2018-02-13T03:09:58.751Z,3.50
2018-02-13T03:12:27.303Z,3.37
2018-02-13T03:14:55.032Z,3.50
2018-02-13T03:17:23.528Z,3.80
2018-02-13T03:19:51.238Z,3.57
2018-02-13T03:22:19.033Z,4.07
2018-02-13T03:24:46.859Z,3.43
2018-02-13T03:27:14.638Z,3.50
2018-02-13T03:29:42.417Z,3.30
2018-02-13T03:32:10.234Z,3.77
2018-02-13T03:34:37.965Z,4.13
2018-02-13T03:37:05.743Z,4.03
2018-02-13T03:39:33.508Z,3.50
2018-02-13T03:42:01.284Z,4.07
2018-02-13T03:44:29.051Z,3.70
2018-02-13T03:46:56.772Z,3.63
2018-02-13T03:49:24.555Z,4.50
2018-02-13T03:51:52.267Z,4.10
2018-02-13T03:54:20.027Z,4.83
2018-02-13T03:56:48.577Z,4.63
2018-02-13T03:59:16.369Z,3.80
2018-02-13T04:01:44.101Z,4.40
2018-02-13T04:04:11.867Z,4.57
2018-02-13T04:06:39.648Z,4.60
2018-02-13T04:09:07.991Z,5.10
2018-02-13T04:11:35.727Z,5.10
2018-02-13T04:14:03.598Z,4.50
2018-02-13T04:16:31.392Z,4.63
2018-02-13T04:18:59.270Z,4.43
2018-02-13T04:21:27.034Z,4.70
2018-02-13T04:23:54.767Z,4.73
2018-02-13T04:26:22.539Z,5.80
2018-02-13T04:28:50.275Z,4.60
2018-02-13T04:31:18.778Z,5.83
2018-02-13T04:33:46.506Z,5.53
2018-02-13T04:36:14.274Z,5.23
2018-02-13T04:38:41.991Z,5.57
2018-02-13T04:41:09.723Z,5.40
2018-02-13T04:43:38.206Z,5.37
2018-02-13T04:46:05.970Z,5.50
2018-02-13T04:48:33.687Z,5.90
2018-02-13T04:51:01.420Z,6.17
2018-02-13T04:53:29.897Z,5.73
2018-02-13T04:55:57.757Z,5.53
2018-02-13T04:58:25.558Z,5.57
2018-02-13T05:00:53.332Z,5.83
2018-02-13T05:03:21.105Z,5.90
2018-02-13T05:05:48.875Z,5.60
2018-02-13T05:08:16.633Z,6.37
2018-02-13T05:10:44.356Z,5.93
2018-02-13T05:13:12.873Z,5.97
2018-02-13T05:15:40.691Z,6.40
2018-02-13T05:18:08.464Z,5.33
2018-02-13T05:20:36.193Z,6.30
2018-02-13T05:23:03.978Z,6.00
2018-02-13T05:25:31.751Z,6.30
2018-02-13T05:27:59.524Z,7.13
2018-02-13T05:30:27.268Z,7.00
2018-02-13T05:32:54.993Z,7.07
2018-02-13T05:35:22.857Z,6.60
2018-02-13T05:38:01.657Z,6.30
2018-02-13T05:40:32.480Z,6.70
2018-02-13T05:43:00.656Z,6.80
2018-02-13T05:45:28.516Z,6.67
2018-02-13T05:47:56.327Z,6.70
2018-02-13T05:50:24.314Z,7.43
2018-02-13T05:52:52.196Z,7.43
2018-02-13T05:55:23.389Z,6.17
2018-02-13T05:57:58.997Z,6.17
2018-02-13T06:00:26.805Z,7.13
2018-02-13T06:02:54.635Z,7.53
2018-02-13T06:05:22.361Z,7.07
2018-02-13T06:07:50.897Z,6.43
2018-02-13T06:10:18.690Z,7.00
2018-02-13T06:12:46.478Z,8.00
2018-02-13T06:15:14.272Z,6.67
2018-02-13T06:17:41.978Z,7.20
2018-02-13T06:20:09.746Z,7.73
2018-02-13T06:22:37.532Z,6.70
2018-02-13T06:25:05.544Z,7.77
2018-02-13T06:27:33.377Z,6.83
2018-02-13T06:30:01.148Z,7.23
2018-02-13T06:32:28.997Z,7.30
2018-02-13T06:34:56.712Z,7.27
2018-02-13T06:37:24.485Z,7.07
2018-02-13T06:39:52.194Z,6.27
2018-02-13T06:42:19.976Z,7.03
2018-02-13T06:44:47.697Z,6.70
2018-02-13T06:47:15.493Z,7.63
2018-02-13T06:49:43.276Z,7.37
2018-02-13T06:52:11.069Z,7.43
2018-02-13T06:54:38.868Z,7.97
2018-02-13T06:57:06.630Z,7.30
2018-02-13T06:59:34.427Z,8.57
2018-02-13T07:02:02.215Z,8.97
2018-02-13T07:04:30.026Z,7.93
2018-02-13T07:06:57.767Z,9.60
2018-02-13T07:09:26.316Z,8.73
2018-02-13T07:11:54.093Z,8.63
2018-02-13T07:14:21.819Z,10.73
2018-02-13T07:16:49.616Z,9.60
2018-02-13T07:19:17.355Z,9.73
2018-02-13T07:21:45.070Z,10.50
2018-02-13T07:24:12.866Z,9.67
2018-02-13T07:26:40.600Z,11.63
2018-02-13T07:29:08.335Z,8.90
2018-02-13T07:31:36.111Z,11.07
2018-02-13T07:34:03.927Z,10.30
2018-02-13T07:36:31.645Z,12.00
2018-02-13T07:38:59.418Z,10.17
2018-02-13T07:41:27.139Z,11.00
2018-02-13T07:43:54.920Z,10.47
2018-02-13T07:46:22.697Z,11.43
2018-02-13T07:48:50.473Z,10.77
2018-02-13T07:51:18.196Z,10.27
2018-02-13T07:53:45.910Z,11.53
2018-02-13T07:56:13.689Z,10.80
2018-02-13T07:58:41.406Z,11.73
2018-02-13T08:01:09.137Z,9.87
2018-02-13T08:03:36.849Z,11.03
2018-02-13T08:06:04.643Z,10.43
2018-02-13T08:08:32.424Z,11.90
2018-02-13T08:11:00.189Z,12.43
2018-02-13T08:13:27.920Z,11.93
2018-02-13T08:15:55.703Z,12.37
2018-02-13T08:18:23.485Z,12.33
2018-02-13T08:20:51.263Z,11.13
2018-02-13T08:23:19.043Z,11.17
2018-02-13T08:25:46.767Z,12.90
2018-02-13T08:28:15.255Z,11.73
2018-02-13T08:30:42.988Z,12.53
2018-02-13T08:33:10.716Z,11.60
2018-02-13T08:35:38.494Z,12.97
2018-02-13T08:38:06.216Z,11.50
2018-02-13T08:40:33.940Z,13.80
2018-02-13T08:43:01.658Z,14.40
2018-02-13T08:45:29.546Z,15.10
2018-02-13T08:47:57.480Z,13.83
2018-02-13T08:50:25.209Z,13.17
2018-02-13T08:52:53.010Z,13.30
2018-02-13T08:55:20.806Z,12.40
2018-02-13T08:57:48.535Z,12.77
2018-02-13T09:00:16.251Z,13.17
2018-02-13T09:02:44.732Z,12.13
2018-02-13T09:05:12.512Z,12.93
2018-02-13T09:07:41.059Z,13.77
2018-02-13T09:10:08.843Z,13.70
2018-02-13T09:12:37.326Z,14.10
2018-02-13T09:15:05.121Z,13.70
2018-02-13T09:17:32.841Z,13.27
2018-02-13T09:20:00.720Z,15.20
2018-02-13T09:22:28.451Z,14.50
2018-02-13T09:24:56.192Z,16.73
2018-02-13T09:27:23.971Z,13.33
2018-02-13T09:29:51.742Z,12.57
2018-02-13T09:32:19.533Z,12.93
2018-02-13T09:34:47.262Z,13.40
2018-02-13T09:37:14.997Z,12.40
2018-02-13T09:39:42.777Z,11.40
2018-02-13T09:42:10.509Z,12.17
2018-02-13T09:44:38.287Z,12.90
2018-02-13T09:47:06.018Z,10.70
2018-02-13T09:49:33.790Z,12.50
2018-02-13T09:52:01.571Z,11.17
2018-02-13T09:54:29.515Z,10.40
2018-02-13T09:56:57.272Z,10.37
2018-02-13T09:59:24.986Z,9.00
2018-02-13T10:01:52.710Z,10.20
2018-02-13T10:04:20.551Z,10.17
2018-02-13T10:06:48.365Z,10.47
2018-02-13T10:09:16.106Z,10.30
2018-02-13T10:11:43.829Z,8.60
2018-02-13T10:14:11.557Z,8.43
2018-02-13T10:16:39.818Z,7.03
2018-02-13T10:19:07.594Z,7.03
2018-02-13T10:21:35.329Z,7.30
2018-02-13T10:24:03.080Z,6.10
2018-02-13T10:26:31.617Z,5.93
2018-02-13T10:28:59.408Z,6.60
2018-02-13T10:31:27.138Z,6.80
2018-02-13T10:33:54.906Z,6.50
2018-02-13T10:36:22.683Z,5.80
2018-02-13T10:38:50.433Z,6.37
2018-02-13T10:41:18.156Z,7.07
2018-02-13T10:43:45.886Z,6.90
2018-02-13T10:46:13.632Z,6.70
2018-02-13T10:48:41.422Z,7.03
2018-02-13T10:51:09.219Z,4.40
2018-02-13T10:53:36.996Z,5.20
2018-02-13T10:56:04.788Z,7.10
2018-02-13T10:58:32.617Z,5.87
2018-02-13T11:01:06.068Z,5.00
2018-02-13T11:03:33.848Z,5.40
2018-02-13T11:06:01.626Z,4.27
2018-02-13T11:08:29.374Z,5.03
2018-02-13T11:10:57.166Z,5.20
2018-02-13T11:13:25.004Z,3.70
2018-02-13T11:15:52.801Z,3.10
2018-02-13T11:18:20.570Z,3.93
2018-02-13T11:20:48.338Z,4.30
2018-02-13T11:23:16.133Z,3.30
2018-02-13T11:25:43.919Z,3.37
2018-02-13T11:28:11.633Z,4.30
2018-02-13T11:30:39.406Z,3.70
2018-02-13T11:33:07.194Z,3.20
2018-02-13T11:35:34.966Z,3.73
2018-02-13T11:38:02.710Z,3.30
2018-02-13T11:40:30.483Z,4.73
2018-02-13T11:42:58.267Z,4.33
2018-02-13T11:45:26.078Z,4.70
2018-02-13T11:47:53.800Z,4.60
2018-02-13T11:50:21.584Z,4.83
2018-02-13T11:52:49.294Z,3.00
2018-02-13T11:55:17.084Z,4.03
2018-02-13T11:57:44.841Z,4.13
2018-02-13T12:00:12.603Z,4.50
2018-02-13T12:02:40.418Z,3.80
2018-02-13T12:05:08.195Z,3.77
2018-02-13T12:07:36.102Z,4.27
2018-02-13T12:10:03.921Z,4.00
2018-02-13T12:12:31.743Z,4.30
2018-02-13T12:14:59.480Z,5.57
2018-02-13T12:17:27.197Z,4.30
2018-02-13T12:19:54.964Z,5.63
2018-02-13T12:22:23.078Z,4.70
2018-02-13T12:24:50.861Z,4.97
2018-02-13T12:27:18.691Z,4.10
2018-02-13T12:29:46.466Z,4.80
2018-02-13T12:32:14.170Z,4.50
2018-02-13T12:34:42.291Z,4.73
2018-02-13T12:37:10.076Z,4.13
2018-02-13T12:39:45.329Z,3.70
2018-02-13T12:42:18.241Z,3.90
2018-02-13T12:44:45.956Z,4.80
2018-02-13T12:47:13.838Z,4.00
2018-02-13T12:49:41.554Z,4.73
2018-02-13T12:52:09.341Z,4.30
2018-02-13T12:54:38.912Z,4.83
2018-02-13T12:57:06.681Z,4.47
2018-02-13T12:59:34.414Z,4.63
2018-02-13T13:02:02.213Z,4.67
2018-02-13T13:04:30.012Z,5.20
2018-02-13T13:06:57.811Z,4.43
2018-02-13T13:09:25.670Z,3.27
2018-02-13T13:11:53.567Z,3.50
2018-02-13T13:14:21.974Z,4.07
2018-02-13T13:16:51.241Z,4.00
2018-02-13T13:19:19.848Z,3.73
2018-02-13T13:21:47.817Z,3.40
2018-02-13T13:24:16.602Z,4.00
2018-02-13T13:26:46.035Z,3.50
2018-02-13T13:29:13.916Z,3.93
2018-02-13T13:31:41.741Z,3.53
2018-02-13T13:34:09.647Z,2.87
2018-02-13T13:36:37.372Z,2.80
2018-02-13T13:39:06.285Z,3.70
2018-02-13T13:41:34.059Z,3.20
2018-02-13T13:44:01.837Z,3.70
2018-02-13T13:46:29.689Z,3.47
2018-02-13T13:49:05.498Z,3.40
2018-02-13T13:51:33.370Z,3.63
2018-02-13T13:54:01.510Z,3.20
2018-02-13T13:56:29.332Z,3.37
2018-02-13T13:58:57.098Z,2.40
2018-02-13T14:01:24.943Z,2.93
2018-02-13T14:03:52.725Z,3.40
2018-02-13T14:06:20.483Z,3.17
2018-02-13T14:08:48.277Z,3.33
2018-02-13T14:11:16.047Z,4.03
2018-02-13T14:13:43.889Z,3.03
2018-02-13T14:16:12.379Z,3.57
2018-02-13T14:18:41.247Z,3.37
2018-02-13T14:21:09.148Z,3.47
2018-02-13T14:23:36.923Z,3.53
2018-02-13T14:26:05.981Z,3.07
2018-02-13T14:28:33.804Z,3.40
2018-02-13T14:31:03.260Z,4.27
2018-02-13T14:33:31.767Z,3.27
2018-02-13T14:35:59.549Z,3.30
2018-02-13T14:38:27.358Z,3.37
2018-02-13T14:40:55.152Z,4.13
2018-02-13T14:43:23.697Z,3.80
2018-02-13T14:45:51.569Z,2.83
2018-02-13T14:48:19.328Z,3.43
2018-02-13T14:50:47.110Z,3.43
2018-02-13T14:53:14.915Z,3.57
2018-02-13T14:55:43.468Z,3.23
2018-02-13T14:58:11.265Z,3.83
2018-02-13T15:00:39.019Z,3.60
2018-02-13T15:03:06.823Z,3.90
2018-02-13T15:05:34.601Z,3.33
2018-02-13T15:08:02.342Z,3.80
2018-02-13T15:10:30.079Z,3.97
2018-02-13T15:12:57.891Z,4.80
2018-02-13T15:15:30.263Z,3.63
2018-02-13T15:18:09.962Z,3.90
2018-02-13T15:20:37.767Z,3.40
2018-02-13T15:23:05.501Z,4.30
2018-02-13T15:25:33.233Z,3.90
2018-02-13T15:28:01.013Z,3.50
2018-02-13T15:30:29.297Z,3.83
2018-02-13T15:32:57.051Z,3.70
2018-02-13T15:35:25.231Z,4.20
2018-02-13T15:37:52.956Z,3.73
2018-02-13T15:40:21.451Z,4.63
2018-02-13T15:42:49.664Z,4.70
2018-02-13T15:45:23.267Z,4.90
2018-02-13T15:47:51.874Z,3.90
2018-02-13T15:50:20.118Z,4.20
2018-02-13T15:52:51.443Z,3.93
2018-02-13T15:55:19.222Z,4.30
2018-02-13T15:57:46.986Z,4.17
2018-02-13T16:00:14.762Z,4.57
2018-02-13T16:02:43.365Z,4.90
2018-02-13T16:05:11.121Z,4.70
2018-02-13T16:07:40.720Z,4.80
2018-02-13T16:10:08.455Z,4.50
2018-02-13T16:12:36.249Z,4.80
2018-02-13T16:15:04.465Z,4.80
2018-02-13T16:17:32.212Z,4.47
2018-02-13T16:20:00.090Z,4.13
2018-02-13T16:22:27.899Z,3.97
2018-02-13T16:24:55.876Z,4.17
2018-02-13T16:27:23.695Z,4.30
2018-02-13T16:29:51.448Z,4.80
2018-02-13T16:32:19.275Z,4.77
2018-02-13T16:34:47.018Z,4.50
2018-02-13T16:37:15.448Z,5.07
2018-02-13T16:39:43.165Z,4.80
2018-02-13T16:42:10.925Z,5.28
2018-02-13T16:44:39.518Z,4.87
2018-02-13T16:47:08.659Z,5.70
2018-02-13T16:49:42.793Z,4.73
2018-02-13T16:52:10.574Z,5.83
2018-02-13T16:54:54.200Z,5.00
2018-02-13T16:57:22.051Z,5.30
2018-02-13T16:59:49.776Z,5.10
2018-02-13T17:02:17.580Z,5.07
2018-02-13T17:04:45.374Z,4.90
2018-02-13T17:07:13.191Z,5.27
2018-02-13T17:09:40.919Z,5.17
2018-02-13T17:12:08.719Z,5.60
2018-02-13T17:14:37.356Z,5.03
2018-02-13T17:17:05.147Z,6.20
2018-02-13T17:19:32.930Z,5.00
2018-02-13T17:22:01.428Z,5.50
2018-02-13T17:24:29.211Z,5.60
2018-02-13T17:26:57.008Z,6.20
2018-02-13T17:29:25.542Z,5.20
2018-02-13T17:31:54.206Z,5.77
2018-02-13T17:34:45.163Z,5.87
2018-02-13T17:37:17.159Z,5.00
2018-02-13T17:39:44.986Z,4.93
2018-02-13T17:42:12.819Z,5.70
2018-02-13T17:44:40.648Z,5.63
2018-02-13T17:47:08.484Z,5.53
2018-02-13T17:49:38.907Z,5.27
2018-02-13T17:52:06.656Z,6.07
2018-02-13T17:54:34.427Z,5.37
2018-02-13T17:57:02.183Z,4.93
2018-02-13T17:59:29.954Z,5.87
2018-02-13T18:01:57.726Z,5.67
2018-02-13T18:04:25.567Z,8.40
2018-02-13T18:06:53.319Z,14.00
2018-02-13T18:09:21.849Z,12.13
2018-02-13T18:12:16.326Z,11.50
2018-02-13T18:14:44.080Z,6.50
2018-02-13T18:17:11.991Z,5.97
2018-02-13T18:19:39.969Z,5.90
2018-02-13T18:22:08.047Z,5.30
2018-02-13T18:24:35.785Z,5.20
2018-02-13T18:27:03.582Z,6.37
2018-02-13T18:29:32.273Z,6.27
2018-02-13T18:32:00.048Z,6.20
2018-02-13T18:34:27.771Z,5.80
2018-02-13T18:36:55.650Z,5.97
2018-02-13T18:39:24.148Z,6.10
2018-02-13T18:41:56.926Z,6.00
2018-02-13T18:44:30.175Z,5.90
2018-02-13T18:50:09.894Z,6.10
2018-02-13T18:55:43.996Z,4.93
2018-02-13T18:58:16.311Z,5.70
2018-02-13T19:00:46.656Z,5.13
2018-02-13T19:03:22.922Z,6.20
2018-02-13T19:05:50.697Z,5.90
2018-02-13T19:08:18.471Z,5.50
2018-02-13T19:10:46.343Z,6.17
2018-02-13T19:16:00.194Z,6.17
2018-02-13T19:18:46.086Z,6.17
2018-02-13T19:40:05.280Z,6.10
2018-02-13T19:59:49.723Z,7.77
2018-02-13T20:02:17.489Z,8.77
2018-02-13T20:04:45.968Z,7.40
2018-02-13T20:07:13.788Z,7.33
2018-02-13T20:09:46.382Z,7.30
2018-02-13T20:12:19.709Z,6.90
2018-02-13T20:14:47.438Z,6.67
2018-02-13T20:17:15.252Z,7.37
2018-02-13T20:19:43.000Z,6.53
2018-02-13T20:22:11.270Z,7.50
2018-02-13T20:24:39.005Z,7.37
2018-02-13T20:27:07.767Z,5.83
2018-02-13T20:29:35.563Z,6.83
2018-02-13T20:32:05.133Z,6.43
2018-02-13T20:34:38.911Z,6.30
2018-02-13T20:37:19.006Z,6.17
2018-02-13T20:39:47.946Z,6.87
2018-02-13T20:42:16.475Z,6.37
2018-02-13T20:44:44.247Z,6.80
2018-02-13T20:47:12.067Z,6.80
2018-02-13T20:49:39.794Z,6.50
2018-02-13T20:52:07.617Z,7.30
2018-02-13T20:54:36.338Z,7.60
2018-02-13T20:57:04.629Z,6.67
2018-02-13T20:59:33.195Z,8.40
2018-02-13T21:02:02.235Z,6.63
2018-02-13T21:04:30.310Z,6.57
2018-02-13T21:09:36.796Z,6.67
2018-02-13T21:12:08.884Z,6.47
2018-02-13T21:14:36.923Z,6.60
2018-02-13T21:17:04.718Z,7.20
2018-02-13T21:19:33.211Z,7.20
2018-02-13T21:22:01.104Z,7.57
2018-02-13T21:24:28.884Z,6.50
2018-02-13T21:26:56.679Z,8.23
2018-02-13T21:29:24.453Z,7.80
2018-02-13T21:31:52.953Z,7.97
2018-02-13T21:34:20.700Z,8.10
2018-02-13T21:36:48.485Z,7.30
2018-02-13T21:39:17.047Z,7.77
2018-02-13T21:41:44.848Z,7.93
2018-02-13T21:44:12.566Z,8.13
2018-02-13T21:46:40.376Z,7.77
2018-02-13T21:49:08.150Z,6.40
2018-02-13T21:51:35.892Z,8.00
2018-02-13T21:54:03.677Z,7.67
2018-02-13T21:56:31.474Z,6.90
2018-02-13T21:58:59.206Z,7.80
2018-02-13T22:01:26.998Z,8.17
2018-02-13T22:03:54.920Z,7.30
2018-02-13T22:06:23.506Z,7.33
2018-02-13T22:08:51.377Z,7.20
2018-02-13T22:11:19.919Z,8.07
2018-02-13T22:13:47.725Z,7.43
2018-02-13T22:16:15.477Z,7.93
2018-02-13T22:18:43.249Z,8.03
2018-02-13T22:21:11.026Z,8.60
2018-02-13T22:23:38.776Z,8.23
2018-02-13T22:26:06.524Z,6.80
2018-02-13T22:28:34.261Z,7.10
2018-02-13T22:31:02.047Z,5.83
2018-02-13T22:33:29.771Z,6.23
2018-02-13T22:35:57.504Z,6.70
2018-02-13T22:38:25.232Z,7.10
2018-02-13T22:40:53.001Z,6.03
2018-02-13T22:43:20.766Z,6.00
2018-02-13T22:45:48.483Z,5.97
2018-02-13T22:48:27.717Z,6.10
2018-02-13T22:50:57.559Z,6.70
2018-02-13T22:53:25.735Z,6.40
2018-02-13T22:55:53.511Z,6.37
2018-02-13T22:58:21.228Z,7.17
2018-02-13T23:00:48.899Z,6.57
2018-02-13T23:03:17.012Z,6.77
2018-02-13T23:05:44.705Z,7.07
2018-02-13T23:08:12.418Z,6.33
2018-02-13T23:10:40.913Z,6.80
2018-02-13T23:13:08.683Z,6.93
2018-02-13T23:15:37.977Z,6.60
2018-02-13T23:18:05.650Z,7.00
2018-02-13T23:20:33.325Z,5.73
2018-02-13T23:23:02.721Z,6.10
2018-02-13T23:25:31.303Z,7.20
2018-02-13T23:27:59.782Z,6.73
2018-02-13T23:30:28.203Z,6.60
2018-02-13T23:32:55.987Z,6.10
2018-02-13T23:35:23.647Z,6.30
2018-02-13T23:37:51.754Z,5.93
2018-02-13T23:40:19.564Z,6.90
2018-02-13T23:42:47.231Z,5.57
2018-02-13T23:45:14.895Z,6.00
2018-02-13T23:47:42.564Z,6.37
2018-02-13T23:50:10.248Z,6.00
2018-02-13T23:52:37.914Z,6.83
2018-02-13T23:55:05.630Z,5.50
2018-02-13T23:57:34.107Z,5.20
